Terminal Aerodrome Forecast
Issued by NWS Shreveport, LA

Current Version | Previous Version | Text Only | Print | Product List | Glossary On
Versions: 1 2 3 4 5 6 7 8 9 10 11 12 13 14 15 16
000
FTUS44 KSHV 211400 AAA
TAFGGG
TAF AMD
KGGG 211452Z 2115/2212 00000KT 1/2SM FG VV002
      TEMPO 2115/2116 3SM BR BKN005
     FM211600 14004KT P6SM SCT008 BKN025
     FM211800 15007KT P6SM SCT030 SCT250
     FM220000 16006KT P6SM SCT035 SCT250
     FM220500 17008KT 4SM BR OVC025
     FM220800 17010KT 1SM BR OVC015=

USA.gov is the U.S. government's official web portal to all federal, state and local government web resources and services.